sensor_id;sensor_type;location;lat;lon;timestamp;temperature;humidity
39865;DHT22;25538;48.392;9.976;2022-07-31T00:00:40;18.20;99.90
39865;DHT22;25538;48.392;9.976;2022-07-31T00:03:07;18.20;99.90
39865;DHT22;25538;48.392;9.976;2022-07-31T00:05:33;18.20;99.90
39865;DHT22;25538;48.392;9.976;2022-07-31T00:08:00;18.20;99.90
39865;DHT22;25538;48.392;9.976;2022-07-31T00:10:26;18.10;99.90
39865;DHT22;25538;48.392;9.976;2022-07-31T00:12:52;18.10;99.90
39865;DHT22;25538;48.392;9.976;2022-07-31T00:15:19;18.10;99.90
39865;DHT22;25538;48.392;9.976;2022-07-31T00:17:45;18.00;99.90
39865;DHT22;25538;48.392;9.976;2022-07-31T00:20:13;17.90;99.90
39865;DHT22;25538;48.392;9.976;2022-07-31T00:22:40;17.90;99.90
39865;DHT22;25538;48.392;9.976;2022-07-31T00:25:07;17.80;99.90
39865;DHT22;25538;48.392;9.976;2022-07-31T00:27:34;17.80;99.90
39865;DHT22;25538;48.392;9.976;2022-07-31T00:29:59;17.80;99.90
39865;DHT22;25538;48.392;9.976;2022-07-31T00:32:25;17.80;99.90
39865;DHT22;25538;48.392;9.976;2022-07-31T00:34:52;17.90;99.90
39865;DHT22;25538;48.392;9.976;2022-07-31T00:37:18;17.80;99.90
39865;DHT22;25538;48.392;9.976;2022-07-31T00:39:44;17.80;99.90
39865;DHT22;25538;48.392;9.976;2022-07-31T00:42:21;17.80;99.90
39865;DHT22;25538;48.392;9.976;2022-07-31T00:44:47;17.70;99.90
39865;DHT22;25538;48.392;9.976;2022-07-31T00:47:14;17.70;99.90
39865;DHT22;25538;48.392;9.976;2022-07-31T00:49:40;17.60;99.90
39865;DHT22;25538;48.392;9.976;2022-07-31T00:52:06;17.50;99.90
39865;DHT22;25538;48.392;9.976;2022-07-31T00:54:33;17.50;99.90
39865;DHT22;25538;48.392;9.976;2022-07-31T00:56:59;17.30;99.90
39865;DHT22;25538;48.392;9.976;2022-07-31T00:59:27;17.30;99.90
39865;DHT22;25538;48.392;9.976;2022-07-31T01:01:53;17.20;99.90
39865;DHT22;25538;48.392;9.976;2022-07-31T01:04:19;17.20;99.90
39865;DHT22;25538;48.392;9.976;2022-07-31T01:06:46;17.30;99.90
39865;DHT22;25538;48.392;9.976;2022-07-31T01:09:12;17.30;99.90
39865;DHT22;25538;48.392;9.976;2022-07-31T01:14:30;17.30;99.90
39865;DHT22;25538;48.392;9.976;2022-07-31T01:16:58;17.30;99.90
39865;DHT22;25538;48.392;9.976;2022-07-31T01:19:34;17.20;99.90
39865;DHT22;25538;48.392;9.976;2022-07-31T01:27:31;17.00;99.90
39865;DHT22;25538;48.392;9.976;2022-07-31T01:30:04;16.90;99.90
39865;DHT22;25538;48.392;9.976;2022-07-31T01:32:39;16.90;99.90
39865;DHT22;25538;48.392;9.976;2022-07-31T01:35:26;16.90;99.90
39865;DHT22;25538;48.392;9.976;2022-07-31T01:38:03;16.80;99.90
39865;DHT22;25538;48.392;9.976;2022-07-31T01:40:38;16.80;99.90
39865;DHT22;25538;48.392;9.976;2022-07-31T01:43:15;16.80;99.90
39865;DHT22;25538;48.392;9.976;2022-07-31T01:45:44;16.80;99.90
39865;DHT22;25538;48.392;9.976;2022-07-31T01:48:13;16.80;99.90
39865;DHT22;25538;48.392;9.976;2022-07-31T01:50:42;16.70;99.90
39865;DHT22;25538;48.392;9.976;2022-07-31T01:53:12;16.70;99.90
39865;DHT22;25538;48.392;9.976;2022-07-31T01:55:41;16.80;99.90
39865;DHT22;25538;48.392;9.976;2022-07-31T01:58:08;16.70;99.90
39865;DHT22;25538;48.392;9.976;2022-07-31T02:00:35;16.70;99.90
39865;DHT22;25538;48.392;9.976;2022-07-31T02:03:04;16.70;99.90
39865;DHT22;25538;48.392;9.976;2022-07-31T02:05:33;16.60;99.90
39865;DHT22;25538;48.392;9.976;2022-07-31T02:08:01;16.60;99.90
39865;DHT22;25538;48.392;9.976;2022-07-31T02:10:27;16.40;99.90
39865;DHT22;25538;48.392;9.976;2022-07-31T02:12:54;16.50;99.90
39865;DHT22;25538;48.392;9.976;2022-07-31T02:15:21;16.50;99.90
39865;DHT22;25538;48.392;9.976;2022-07-31T02:17:49;16.50;99.90
39865;DHT22;25538;48.392;9.976;2022-07-31T02:20:16;16.40;99.90
39865;DHT22;25538;48.392;9.976;2022-07-31T02:22:43;16.50;99.90
39865;DHT22;25538;48.392;9.976;2022-07-31T02:25:09;16.50;99.90
39865;DHT22;25538;48.392;9.976;2022-07-31T02:27:37;16.40;99.90
39865;DHT22;25538;48.392;9.976;2022-07-31T02:30:05;16.40;99.90
39865;DHT22;25538;48.392;9.976;2022-07-31T02:32:32;16.30;99.90
39865;DHT22;25538;48.392;9.976;2022-07-31T02:35:00;16.30;99.90
39865;DHT22;25538;48.392;9.976;2022-07-31T02:37:28;16.30;99.90
39865;DHT22;25538;48.392;9.976;2022-07-31T02:39:54;16.20;99.90
39865;DHT22;25538;48.392;9.976;2022-07-31T02:42:22;16.20;99.90
39865;DHT22;25538;48.392;9.976;2022-07-31T02:44:48;16.20;99.90
39865;DHT22;25538;48.392;9.976;2022-07-31T02:47:15;16.10;99.90
39865;DHT22;25538;48.392;9.976;2022-07-31T02:49:43;16.10;99.90
39865;DHT22;25538;48.392;9.976;2022-07-31T02:52:10;16.00;99.90
39865;DHT22;25538;48.392;9.976;2022-07-31T02:54:38;16.00;99.90
39865;DHT22;25538;48.392;9.976;2022-07-31T02:57:05;16.10;99.90
39865;DHT22;25538;48.392;9.976;2022-07-31T02:59:36;16.10;99.90
39865;DHT22;25538;48.392;9.976;2022-07-31T03:02:03;16.10;99.90
39865;DHT22;25538;48.392;9.976;2022-07-31T03:04:29;16.10;99.90
39865;DHT22;25538;48.392;9.976;2022-07-31T03:06:55;16.10;99.90
39865;DHT22;25538;48.392;9.976;2022-07-31T03:09:21;16.00;99.90
39865;DHT22;25538;48.392;9.976;2022-07-31T03:11:47;16.10;99.90
39865;DHT22;25538;48.392;9.976;2022-07-31T03:14:13;16.10;99.90
39865;DHT22;25538;48.392;9.976;2022-07-31T03:16:40;16.00;99.90
39865;DHT22;25538;48.392;9.976;2022-07-31T03:19:07;16.00;99.90
39865;DHT22;25538;48.392;9.976;2022-07-31T03:21:34;16.00;99.90
39865;DHT22;25538;48.392;9.976;2022-07-31T03:24:01;16.00;99.90
39865;DHT22;25538;48.392;9.976;2022-07-31T03:26:28;16.10;99.90
39865;DHT22;25538;48.392;9.976;2022-07-31T03:28:54;16.10;99.90
39865;DHT22;25538;48.392;9.976;2022-07-31T03:31:20;16.00;99.90
39865;DHT22;25538;48.392;9.976;2022-07-31T03:33:47;16.00;99.90
39865;DHT22;25538;48.392;9.976;2022-07-31T03:36:13;16.00;99.90
39865;DHT22;25538;48.392;9.976;2022-07-31T03:38:39;16.10;99.90
39865;DHT22;25538;48.392;9.976;2022-07-31T03:41:05;16.10;99.90
39865;DHT22;25538;48.392;9.976;2022-07-31T03:43:32;16.10;99.90
39865;DHT22;25538;48.392;9.976;2022-07-31T03:45:59;16.20;99.90
39865;DHT22;25538;48.392;9.976;2022-07-31T03:48:27;16.20;99.90
39865;DHT22;25538;48.392;9.976;2022-07-31T03:50:54;16.20;99.90
39865;DHT22;25538;48.392;9.976;2022-07-31T03:53:21;16.30;99.90
39865;DHT22;25538;48.392;9.976;2022-07-31T03:55:47;16.30;99.90
39865;DHT22;25538;48.392;9.976;2022-07-31T03:58:14;16.30;99.90
39865;DHT22;25538;48.392;9.976;2022-07-31T04:00:43;16.20;99.90
39865;DHT22;25538;48.392;9.976;2022-07-31T04:03:10;16.20;99.90
39865;DHT22;25538;48.392;9.976;2022-07-31T04:05:37;16.20;99.90
39865;DHT22;25538;48.392;9.976;2022-07-31T04:08:05;16.20;99.90
39865;DHT22;25538;48.392;9.976;2022-07-31T04:10:31;16.20;99.90
39865;DHT22;25538;48.392;9.976;2022-07-31T04:12:56;16.20;99.90
39865;DHT22;25538;48.392;9.976;2022-07-31T04:15:23;16.30;99.90
39865;DHT22;25538;48.392;9.976;2022-07-31T04:17:49;16.30;99.90
39865;DHT22;25538;48.392;9.976;2022-07-31T04:20:15;16.40;99.90
39865;DHT22;25538;48.392;9.976;2022-07-31T04:22:41;16.40;99.90
39865;DHT22;25538;48.392;9.976;2022-07-31T04:25:07;16.40;99.90
39865;DHT22;25538;48.392;9.976;2022-07-31T04:27:36;16.40;99.90
39865;DHT22;25538;48.392;9.976;2022-07-31T04:30:03;16.30;99.90
39865;DHT22;25538;48.392;9.976;2022-07-31T04:32:29;16.40;99.90
39865;DHT22;25538;48.392;9.976;2022-07-31T04:34:55;16.30;99.90
39865;DHT22;25538;48.392;9.976;2022-07-31T04:37:21;16.30;99.90
39865;DHT22;25538;48.392;9.976;2022-07-31T04:39:47;16.40;99.90
39865;DHT22;25538;48.392;9.976;2022-07-31T04:42:13;16.50;99.90
39865;DHT22;25538;48.392;9.976;2022-07-31T04:44:38;16.50;99.90
39865;DHT22;25538;48.392;9.976;2022-07-31T04:47:05;16.60;99.90
39865;DHT22;25538;48.392;9.976;2022-07-31T04:49:32;16.70;99.90
39865;DHT22;25538;48.392;9.976;2022-07-31T04:51:59;16.70;99.90
39865;DHT22;25538;48.392;9.976;2022-07-31T04:54:25;16.60;99.90
39865;DHT22;25538;48.392;9.976;2022-07-31T04:56:51;16.70;99.90
39865;DHT22;25538;48.392;9.976;2022-07-31T04:59:19;16.80;99.90
39865;DHT22;25538;48.392;9.976;2022-07-31T05:01:47;16.80;99.90
39865;DHT22;25538;48.392;9.976;2022-07-31T05:04:13;16.70;99.90
39865;DHT22;25538;48.392;9.976;2022-07-31T05:06:42;16.70;99.90
39865;DHT22;25538;48.392;9.976;2022-07-31T05:09:11;16.80;99.90
39865;DHT22;25538;48.392;9.976;2022-07-31T05:11:40;16.90;99.90
39865;DHT22;25538;48.392;9.976;2022-07-31T05:14:08;17.00;99.90
39865;DHT22;25538;48.392;9.976;2022-07-31T05:16:35;17.20;99.90
39865;DHT22;25538;48.392;9.976;2022-07-31T05:19:02;17.40;99.90
39865;DHT22;25538;48.392;9.976;2022-07-31T05:21:28;17.30;99.90
39865;DHT22;25538;48.392;9.976;2022-07-31T05:23:58;17.40;99.90
39865;DHT22;25538;48.392;9.976;2022-07-31T05:26:25;17.50;99.90
39865;DHT22;25538;48.392;9.976;2022-07-31T05:28:53;17.60;99.90
39865;DHT22;25538;48.392;9.976;2022-07-31T05:31:19;17.80;99.90
39865;DHT22;25538;48.392;9.976;2022-07-31T05:33:47;18.00;99.90
39865;DHT22;25538;48.392;9.976;2022-07-31T05:36:14;18.00;99.90
39865;DHT22;25538;48.392;9.976;2022-07-31T05:38:40;18.10;99.90
39865;DHT22;25538;48.392;9.976;2022-07-31T05:41:07;18.30;99.90
39865;DHT22;25538;48.392;9.976;2022-07-31T05:43:33;18.50;99.90
39865;DHT22;25538;48.392;9.976;2022-07-31T05:45:59;18.50;99.90
39865;DHT22;25538;48.392;9.976;2022-07-31T05:48:25;18.70;99.90
39865;DHT22;25538;48.392;9.976;2022-07-31T05:50:51;18.90;99.90
39865;DHT22;25538;48.392;9.976;2022-07-31T05:53:17;18.90;99.90
39865;DHT22;25538;48.392;9.976;2022-07-31T05:55:47;19.00;99.90
39865;DHT22;25538;48.392;9.976;2022-07-31T05:58:14;19.10;99.90
39865;DHT22;25538;48.392;9.976;2022-07-31T06:00:41;19.20;99.90
39865;DHT22;25538;48.392;9.976;2022-07-31T06:03:07;19.40;99.90
39865;DHT22;25538;48.392;9.976;2022-07-31T06:05:33;19.30;99.90
39865;DHT22;25538;48.392;9.976;2022-07-31T06:07:59;19.40;99.90
39865;DHT22;25538;48.392;9.976;2022-07-31T06:10:26;19.40;99.90
39865;DHT22;25538;48.392;9.976;2022-07-31T06:12:53;19.30;99.90
39865;DHT22;25538;48.392;9.976;2022-07-31T06:15:19;19.40;99.90
39865;DHT22;25538;48.392;9.976;2022-07-31T06:17:46;19.40;99.90
39865;DHT22;25538;48.392;9.976;2022-07-31T06:20:12;19.50;99.90
39865;DHT22;25538;48.392;9.976;2022-07-31T06:22:39;19.70;99.90
39865;DHT22;25538;48.392;9.976;2022-07-31T06:25:06;19.80;99.90
39865;DHT22;25538;48.392;9.976;2022-07-31T06:27:34;20.10;99.90
39865;DHT22;25538;48.392;9.976;2022-07-31T06:30:00;20.20;99.90
39865;DHT22;25538;48.392;9.976;2022-07-31T06:32:27;20.40;99.90
39865;DHT22;25538;48.392;9.976;2022-07-31T06:34:53;20.70;99.90
39865;DHT22;25538;48.392;9.976;2022-07-31T06:37:19;20.80;99.90
39865;DHT22;25538;48.392;9.976;2022-07-31T06:39:45;20.90;99.90
39865;DHT22;25538;48.392;9.976;2022-07-31T06:42:17;20.90;99.90
39865;DHT22;25538;48.392;9.976;2022-07-31T06:44:43;20.80;99.90
39865;DHT22;25538;48.392;9.976;2022-07-31T06:47:09;20.80;99.90
39865;DHT22;25538;48.392;9.976;2022-07-31T06:49:35;20.90;99.90
39865;DHT22;25538;48.392;9.976;2022-07-31T06:52:01;20.90;99.90
39865;DHT22;25538;48.392;9.976;2022-07-31T06:54:27;20.90;99.90
39865;DHT22;25538;48.392;9.976;2022-07-31T06:56:53;21.00;99.90
39865;DHT22;25538;48.392;9.976;2022-07-31T06:59:19;21.10;99.90
39865;DHT22;25538;48.392;9.976;2022-07-31T07:01:45;21.10;99.90
39865;DHT22;25538;48.392;9.976;2022-07-31T07:04:11;20.90;99.90
39865;DHT22;25538;48.392;9.976;2022-07-31T07:06:36;20.90;99.90
39865;DHT22;25538;48.392;9.976;2022-07-31T07:09:02;21.00;99.90
39865;DHT22;25538;48.392;9.976;2022-07-31T07:11:28;21.00;99.90
39865;DHT22;25538;48.392;9.976;2022-07-31T07:13:54;21.00;99.90
39865;DHT22;25538;48.392;9.976;2022-07-31T07:16:20;21.10;99.90
39865;DHT22;25538;48.392;9.976;2022-07-31T07:18:46;21.20;99.90
39865;DHT22;25538;48.392;9.976;2022-07-31T07:21:12;21.60;99.90
39865;DHT22;25538;48.392;9.976;2022-07-31T07:23:38;21.60;99.90
39865;DHT22;25538;48.392;9.976;2022-07-31T07:26:04;21.50;99.90
39865;DHT22;25538;48.392;9.976;2022-07-31T07:28:30;21.50;99.90
39865;DHT22;25538;48.392;9.976;2022-07-31T07:30:56;21.60;99.90
39865;DHT22;25538;48.392;9.976;2022-07-31T07:33:22;21.80;99.90
39865;DHT22;25538;48.392;9.976;2022-07-31T07:35:48;21.70;99.90
39865;DHT22;25538;48.392;9.976;2022-07-31T07:38:14;21.60;99.90
39865;DHT22;25538;48.392;9.976;2022-07-31T07:40:40;21.70;99.90
39865;DHT22;25538;48.392;9.976;2022-07-31T07:43:06;22.00;99.90
39865;DHT22;25538;48.392;9.976;2022-07-31T07:45:32;22.20;99.90
39865;DHT22;25538;48.392;9.976;2022-07-31T07:47:57;22.40;99.90
39865;DHT22;25538;48.392;9.976;2022-07-31T07:50:23;22.70;99.90
39865;DHT22;25538;48.392;9.976;2022-07-31T07:52:49;23.00;99.90
39865;DHT22;25538;48.392;9.976;2022-07-31T07:55:15;23.40;99.90
39865;DHT22;25538;48.392;9.976;2022-07-31T07:57:43;23.90;99.90
39865;DHT22;25538;48.392;9.976;2022-07-31T08:00:10;24.20;99.90
39865;DHT22;25538;48.392;9.976;2022-07-31T08:02:37;24.20;99.90
39865;DHT22;25538;48.392;9.976;2022-07-31T08:05:04;24.00;99.90
39865;DHT22;25538;48.392;9.976;2022-07-31T08:07:32;23.90;99.90
39865;DHT22;25538;48.392;9.976;2022-07-31T08:09:58;23.60;99.90
39865;DHT22;25538;48.392;9.976;2022-07-31T08:12:25;23.60;99.90
39865;DHT22;25538;48.392;9.976;2022-07-31T08:14:52;23.50;99.90
39865;DHT22;25538;48.392;9.976;2022-07-31T08:17:18;23.50;99.90
39865;DHT22;25538;48.392;9.976;2022-07-31T08:19:44;23.70;99.90
39865;DHT22;25538;48.392;9.976;2022-07-31T08:22:10;23.90;99.90
39865;DHT22;25538;48.392;9.976;2022-07-31T08:24:36;24.40;99.90
39865;DHT22;25538;48.392;9.976;2022-07-31T08:27:02;24.80;99.90
39865;DHT22;25538;48.392;9.976;2022-07-31T08:29:47;25.10;99.90
39865;DHT22;25538;48.392;9.976;2022-07-31T08:32:13;25.20;99.90
39865;DHT22;25538;48.392;9.976;2022-07-31T08:34:39;25.10;99.90
39865;DHT22;25538;48.392;9.976;2022-07-31T08:37:06;25.10;99.90
39865;DHT22;25538;48.392;9.976;2022-07-31T08:39:32;25.00;99.90
39865;DHT22;25538;48.392;9.976;2022-07-31T08:42:03;25.10;99.90
39865;DHT22;25538;48.392;9.976;2022-07-31T08:44:29;25.60;99.90
39865;DHT22;25538;48.392;9.976;2022-07-31T08:46:56;25.90;99.90
39865;DHT22;25538;48.392;9.976;2022-07-31T08:49:24;26.10;99.90
39865;DHT22;25538;48.392;9.976;2022-07-31T08:51:51;26.40;99.90
39865;DHT22;25538;48.392;9.976;2022-07-31T08:54:19;26.50;99.90
39865;DHT22;25538;48.392;9.976;2022-07-31T08:56:46;26.80;99.90
39865;DHT22;25538;48.392;9.976;2022-07-31T08:59:17;27.20;98.00
39865;DHT22;25538;48.392;9.976;2022-07-31T09:01:44;27.40;96.40
39865;DHT22;25538;48.392;9.976;2022-07-31T09:04:11;27.60;93.80
39865;DHT22;25538;48.392;9.976;2022-07-31T09:06:37;27.80;92.20
39865;DHT22;25538;48.392;9.976;2022-07-31T09:09:04;27.90;90.00
39865;DHT22;25538;48.392;9.976;2022-07-31T09:11:30;28.20;82.50
39865;DHT22;25538;48.392;9.976;2022-07-31T09:13:58;28.30;80.40
39865;DHT22;25538;48.392;9.976;2022-07-31T09:16:25;28.20;78.10
39865;DHT22;25538;48.392;9.976;2022-07-31T09:19:00;28.30;74.70
39865;DHT22;25538;48.392;9.976;2022-07-31T09:21:40;28.50;71.00
39865;DHT22;25538;48.392;9.976;2022-07-31T09:24:08;28.40;68.90
39865;DHT22;25538;48.392;9.976;2022-07-31T09:26:35;28.30;68.50
39865;DHT22;25538;48.392;9.976;2022-07-31T09:29:03;28.20;69.10
39865;DHT22;25538;48.392;9.976;2022-07-31T09:31:34;28.20;69.20
39865;DHT22;25538;48.392;9.976;2022-07-31T09:34:00;28.40;69.30
39865;DHT22;25538;48.392;9.976;2022-07-31T09:36:27;28.70;67.20
39865;DHT22;25538;48.392;9.976;2022-07-31T09:38:54;29.10;64.50
39865;DHT22;25538;48.392;9.976;2022-07-31T09:41:22;29.40;63.30
39865;DHT22;25538;48.392;9.976;2022-07-31T09:43:58;29.70;62.10
39865;DHT22;25538;48.392;9.976;2022-07-31T09:46:26;29.70;61.70
39865;DHT22;25538;48.392;9.976;2022-07-31T09:48:54;29.90;58.90
39865;DHT22;25538;48.392;9.976;2022-07-31T09:51:25;30.50;57.20
39865;DHT22;25538;48.392;9.976;2022-07-31T09:53:51;30.30;56.70
39865;DHT22;25538;48.392;9.976;2022-07-31T09:56:32;30.30;54.60
39865;DHT22;25538;48.392;9.976;2022-07-31T09:58:58;30.60;54.60
39865;DHT22;25538;48.392;9.976;2022-07-31T10:01:25;32.00;53.70
39865;DHT22;25538;48.392;9.976;2022-07-31T10:03:52;33.20;50.10
39865;DHT22;25538;48.392;9.976;2022-07-31T10:06:22;34.20;46.50
39865;DHT22;25538;48.392;9.976;2022-07-31T10:08:50;34.80;44.30
39865;DHT22;25538;48.392;9.976;2022-07-31T10:11:20;34.80;43.40
39865;DHT22;25538;48.392;9.976;2022-07-31T10:13:49;34.60;44.20
39865;DHT22;25538;48.392;9.976;2022-07-31T10:16:16;35.80;41.50
39865;DHT22;25538;48.392;9.976;2022-07-31T10:18:56;36.40;40.10
39865;DHT22;25538;48.392;9.976;2022-07-31T10:21:28;37.70;37.70
39865;DHT22;25538;48.392;9.976;2022-07-31T10:23:57;38.70;35.90
39865;DHT22;25538;48.392;9.976;2022-07-31T10:26:25;39.20;34.80
39865;DHT22;25538;48.392;9.976;2022-07-31T10:28:51;39.50;34.00
39865;DHT22;25538;48.392;9.976;2022-07-31T10:31:18;38.80;34.20
39865;DHT22;25538;48.392;9.976;2022-07-31T10:33:44;38.50;32.50
39865;DHT22;25538;48.392;9.976;2022-07-31T10:36:24;38.20;33.50
39865;DHT22;25538;48.392;9.976;2022-07-31T10:38:53;38.90;33.70
39865;DHT22;25538;48.392;9.976;2022-07-31T10:43:55;39.70;31.90
39865;DHT22;25538;48.392;9.976;2022-07-31T10:46:29;40.30;31.80
39865;DHT22;25538;48.392;9.976;2022-07-31T10:48:56;40.10;31.60
39865;DHT22;25538;48.392;9.976;2022-07-31T10:51:22;40.90;31.40
39865;DHT22;25538;48.392;9.976;2022-07-31T10:53:56;42.20;29.80
39865;DHT22;25538;48.392;9.976;2022-07-31T10:56:23;42.20;28.70
39865;DHT22;25538;48.392;9.976;2022-07-31T10:58:51;40.80;29.30
39865;DHT22;25538;48.392;9.976;2022-07-31T11:01:18;40.50;30.30
39865;DHT22;25538;48.392;9.976;2022-07-31T11:03:46;40.70;29.70
39865;DHT22;25538;48.392;9.976;2022-07-31T11:06:15;41.20;29.30
39865;DHT22;25538;48.392;9.976;2022-07-31T11:08:42;39.80;29.60
39865;DHT22;25538;48.392;9.976;2022-07-31T11:11:09;39.80;30.10
39865;DHT22;25538;48.392;9.976;2022-07-31T11:13:49;40.40;29.90
39865;DHT22;25538;48.392;9.976;2022-07-31T11:16:16;42.40;28.90
39865;DHT22;25538;48.392;9.976;2022-07-31T11:18:44;43.20;28.00
39865;DHT22;25538;48.392;9.976;2022-07-31T11:21:32;44.40;27.60
39865;DHT22;25538;48.392;9.976;2022-07-31T11:24:00;43.40;27.40
39865;DHT22;25538;48.392;9.976;2022-07-31T11:26:27;42.20;28.80
39865;DHT22;25538;48.392;9.976;2022-07-31T11:28:52;42.30;28.30
39865;DHT22;25538;48.392;9.976;2022-07-31T11:31:18;41.80;28.60
39865;DHT22;25538;48.392;9.976;2022-07-31T11:33:46;40.60;29.40
39865;DHT22;25538;48.392;9.976;2022-07-31T11:36:14;41.00;29.70
39865;DHT22;25538;48.392;9.976;2022-07-31T11:38:45;41.00;30.20
39865;DHT22;25538;48.392;9.976;2022-07-31T11:41:12;42.10;30.40
39865;DHT22;25538;48.392;9.976;2022-07-31T11:43:43;44.00;29.40
39865;DHT22;25538;48.392;9.976;2022-07-31T11:46:09;44.60;27.80
39865;DHT22;25538;48.392;9.976;2022-07-31T11:48:37;44.10;28.40
39865;DHT22;25538;48.392;9.976;2022-07-31T11:51:04;45.70;27.50
39865;DHT22;25538;48.392;9.976;2022-07-31T11:53:37;47.00;26.10
39865;DHT22;25538;48.392;9.976;2022-07-31T11:56:04;44.70;27.00
39865;DHT22;25538;48.392;9.976;2022-07-31T11:58:30;41.80;28.90
39865;DHT22;25538;48.392;9.976;2022-07-31T12:00:58;39.90;30.40
39865;DHT22;25538;48.392;9.976;2022-07-31T12:03:28;38.20;32.60
39865;DHT22;25538;48.392;9.976;2022-07-31T12:05:54;37.10;33.40
39865;DHT22;25538;48.392;9.976;2022-07-31T12:08:21;36.40;35.50
39865;DHT22;25538;48.392;9.976;2022-07-31T12:10:48;36.50;33.90
39865;DHT22;25538;48.392;9.976;2022-07-31T12:13:18;36.20;34.30
39865;DHT22;25538;48.392;9.976;2022-07-31T12:16:07;36.30;34.60
39865;DHT22;25538;48.392;9.976;2022-07-31T12:21:12;37.30;33.10
39865;DHT22;25538;48.392;9.976;2022-07-31T12:23:47;36.00;35.10
39865;DHT22;25538;48.392;9.976;2022-07-31T12:26:23;34.50;36.50
39865;DHT22;25538;48.392;9.976;2022-07-31T12:31:25;33.50;38.00
39865;DHT22;25538;48.392;9.976;2022-07-31T12:33:51;33.30;38.10
39865;DHT22;25538;48.392;9.976;2022-07-31T12:36:17;34.40;37.70
39865;DHT22;25538;48.392;9.976;2022-07-31T12:38:44;35.40;36.70
39865;DHT22;25538;48.392;9.976;2022-07-31T12:41:10;36.90;35.40
39865;DHT22;25538;48.392;9.976;2022-07-31T12:43:36;39.20;32.60
39865;DHT22;25538;48.392;9.976;2022-07-31T12:46:02;40.70;30.80
39865;DHT22;25538;48.392;9.976;2022-07-31T12:48:31;42.20;29.30
39865;DHT22;25538;48.392;9.976;2022-07-31T12:50:59;43.10;29.40
39865;DHT22;25538;48.392;9.976;2022-07-31T12:53:27;44.00;28.10
39865;DHT22;25538;48.392;9.976;2022-07-31T12:55:55;42.30;28.90
39865;DHT22;25538;48.392;9.976;2022-07-31T12:58:21;42.00;29.20
39865;DHT22;25538;48.392;9.976;2022-07-31T13:00:47;42.70;29.20
39865;DHT22;25538;48.392;9.976;2022-07-31T13:03:13;42.70;28.90
39865;DHT22;25538;48.392;9.976;2022-07-31T13:05:38;41.80;29.50
39865;DHT22;25538;48.392;9.976;2022-07-31T13:08:04;41.80;29.90
39865;DHT22;25538;48.392;9.976;2022-07-31T13:10:33;41.40;29.80
39865;DHT22;25538;48.392;9.976;2022-07-31T13:12:59;39.90;31.40
39865;DHT22;25538;48.392;9.976;2022-07-31T13:15:25;41.10;30.90
39865;DHT22;25538;48.392;9.976;2022-07-31T13:17:58;42.60;29.20
39865;DHT22;25538;48.392;9.976;2022-07-31T13:20:26;43.50;28.40
39865;DHT22;25538;48.392;9.976;2022-07-31T13:22:52;44.00;28.20
39865;DHT22;25538;48.392;9.976;2022-07-31T13:25:18;45.00;27.80
39865;DHT22;25538;48.392;9.976;2022-07-31T13:27:44;45.30;27.60
39865;DHT22;25538;48.392;9.976;2022-07-31T13:30:11;44.40;27.30
39865;DHT22;25538;48.392;9.976;2022-07-31T13:32:38;42.50;28.30
39865;DHT22;25538;48.392;9.976;2022-07-31T13:35:04;41.00;29.80
39865;DHT22;25538;48.392;9.976;2022-07-31T13:37:30;39.10;31.50
39865;DHT22;25538;48.392;9.976;2022-07-31T13:39:56;36.70;34.30
39865;DHT22;25538;48.392;9.976;2022-07-31T13:42:22;35.70;35.90
39865;DHT22;25538;48.392;9.976;2022-07-31T13:44:48;37.40;33.00
39865;DHT22;25538;48.392;9.976;2022-07-31T13:47:14;37.60;33.30
39865;DHT22;25538;48.392;9.976;2022-07-31T13:49:40;36.50;34.60
39865;DHT22;25538;48.392;9.976;2022-07-31T13:52:05;35.30;36.10
39865;DHT22;25538;48.392;9.976;2022-07-31T13:54:31;33.80;37.50
39865;DHT22;25538;48.392;9.976;2022-07-31T13:56:57;32.90;39.50
39865;DHT22;25538;48.392;9.976;2022-07-31T13:59:23;32.50;40.30
39865;DHT22;25538;48.392;9.976;2022-07-31T14:01:49;33.40;39.10
39865;DHT22;25538;48.392;9.976;2022-07-31T14:04:19;35.10;37.50
39865;DHT22;25538;48.392;9.976;2022-07-31T14:06:46;37.20;34.40
39865;DHT22;25538;48.392;9.976;2022-07-31T14:09:12;36.20;34.60
39865;DHT22;25538;48.392;9.976;2022-07-31T14:11:39;34.40;37.00
39865;DHT22;25538;48.392;9.976;2022-07-31T14:14:04;33.20;38.60
39865;DHT22;25538;48.392;9.976;2022-07-31T14:16:30;31.90;40.30
39865;DHT22;25538;48.392;9.976;2022-07-31T14:18:56;31.80;41.10
39865;DHT22;25538;48.392;9.976;2022-07-31T14:21:22;33.10;40.00
39865;DHT22;25538;48.392;9.976;2022-07-31T14:23:48;34.40;38.20
39865;DHT22;25538;48.392;9.976;2022-07-31T14:26:14;33.90;38.60
39865;DHT22;25538;48.392;9.976;2022-07-31T14:28:40;33.90;38.70
39865;DHT22;25538;48.392;9.976;2022-07-31T14:31:06;34.70;38.30
39865;DHT22;25538;48.392;9.976;2022-07-31T14:33:32;36.80;36.50
39865;DHT22;25538;48.392;9.976;2022-07-31T14:35:58;38.80;33.80
39865;DHT22;25538;48.392;9.976;2022-07-31T14:38:24;40.00;31.60
39865;DHT22;25538;48.392;9.976;2022-07-31T14:40:50;38.70;32.60
39865;DHT22;25538;48.392;9.976;2022-07-31T14:43:16;36.30;35.30
39865;DHT22;25538;48.392;9.976;2022-07-31T14:45:42;34.00;37.80
39865;DHT22;25538;48.392;9.976;2022-07-31T14:48:08;33.80;38.70
39865;DHT22;25538;48.392;9.976;2022-07-31T14:50:37;34.70;37.20
39865;DHT22;25538;48.392;9.976;2022-07-31T14:53:06;35.50;36.30
39865;DHT22;25538;48.392;9.976;2022-07-31T14:55:33;36.20;34.80
39865;DHT22;25538;48.392;9.976;2022-07-31T14:57:59;37.00;34.00
39865;DHT22;25538;48.392;9.976;2022-07-31T15:00:24;36.40;34.60
39865;DHT22;25538;48.392;9.976;2022-07-31T15:02:51;35.50;36.00
39865;DHT22;25538;48.392;9.976;2022-07-31T15:05:17;34.20;38.10
39865;DHT22;25538;48.392;9.976;2022-07-31T15:07:43;33.30;39.20
39865;DHT22;25538;48.392;9.976;2022-07-31T15:10:10;32.50;40.40
39865;DHT22;25538;48.392;9.976;2022-07-31T15:12:36;31.60;41.30
39865;DHT22;25538;48.392;9.976;2022-07-31T15:15:03;30.90;42.30
39865;DHT22;25538;48.392;9.976;2022-07-31T15:17:29;30.70;43.00
39865;DHT22;25538;48.392;9.976;2022-07-31T15:19:55;31.20;42.60
39865;DHT22;25538;48.392;9.976;2022-07-31T15:22:21;31.30;42.10
39865;DHT22;25538;48.392;9.976;2022-07-31T15:24:47;31.30;42.10
39865;DHT22;25538;48.392;9.976;2022-07-31T15:27:13;31.20;42.30
39865;DHT22;25538;48.392;9.976;2022-07-31T15:29:39;31.30;42.40
39865;DHT22;25538;48.392;9.976;2022-07-31T15:32:06;31.50;42.10
39865;DHT22;25538;48.392;9.976;2022-07-31T15:34:32;31.50;42.80
39865;DHT22;25538;48.392;9.976;2022-07-31T15:37:00;31.70;43.10
39865;DHT22;25538;48.392;9.976;2022-07-31T15:39:27;31.80;42.00
39865;DHT22;25538;48.392;9.976;2022-07-31T15:41:53;31.80;42.10
39865;DHT22;25538;48.392;9.976;2022-07-31T15:44:18;31.30;42.70
39865;DHT22;25538;48.392;9.976;2022-07-31T15:46:44;30.80;43.60